CheckWX is a tool to help pilots better visualize weather data.  It is not intended as a substitute for an official pre-flight weather briefing.

13:38:21 UTC

KOFF TAF
Offutt AFB Airport
Omaha, Nebraska, USA
TAF KOFF 181000Z 1810/1916 36012KT 9999 FEW030 SCT080 QNH2969INS BECMG 1816/1817 VRB06KT 9999 SCT050 QNH2979INS BECMG 1821/1822 04012KT 9999 FEW050 QNH2983INS TX27/1822Z TN18/1910Z

Aug-18@
10:00 UTC

Aug-18 @ 10:00 UTC

Aug-18@
16:00 UTC

Aug-18 @ 16:00 UTC

TAF KOFF 181000Z 1810/1916 36012KT 9999 FEW030 SCT080 QNH2969INS
Wind
  • 360° at 12 KTS
Cloud Levels
  • Few at 3,000' AGL
  • Scattered at 8,000' AGL

Aug-18@
16:00 UTC

Aug-18 @ 16:00 UTC

Aug-18@
21:00 UTC

Aug-18 @ 21:00 UTC

BECMG 1816/1817 VRB06KT 9999 SCT050 QNH2979INS

Becoming

Becoming Conditions expected by Sun, Aug 18, 2019 @ 17:00 UTC

Wind
  • Variable at 6 KTS
Cloud Levels
  • Scattered at 5,000' AGL

Aug-18@
21:00 UTC

Aug-18 @ 21:00 UTC

Aug-19@
16:00 UTC

Aug-19 @ 16:00 UTC

BECMG 1821/1822 04012KT 9999 FEW050 QNH2983INS TX27/1822Z TN18/1910Z

Becoming

Becoming Conditions expected by Sun, Aug 18, 2019 @ 22:00 UTC

Wind
  • 040° at 12 KTS
Cloud Levels
  • Few at 5,000' AGL